Huvudsida
METAR-TAF:

METAR-TAF

Flygplatser :

Torsby flygplats

Torsby, Sverige

latitud: 60-09-17N, longitud: 12-59-40E, höjd: 120 m

Aktuellt väderrapport

Denna rapport gjordes för 43 minuter sedan, klockan 07:20 UTC
Vind 8 kt från väst/nordväst
Temperatur 4°C
Fuktighet 93%
Tryck 992 hPa
Sikt 10 km eller mer

METAR: ESST 230720Z AUTO 30008KT 9999 NCD 04/03 Q0992

Tid: 10:03 (08:03 UTC)


TAF: saknas

Aktuella väderrapporter och prognoser från 4000 flygplatser (METAR- och TAF-rapporter).

De tillgängliga stationerna syns som gula och röda prickar på kartan.

För musen över prickarna för att se namnen på stationerna.

Klicka sedan för att få väderrapporter och prognoser.

För att ändra kartan: Klicka på de gröna knapparna med ett svart kors på för att zooma in; den gröna knappen med ett streck på för att zooma ut; eller på de gröna pilarna för angränsande kartor.


METAR-TAF: